Time;durP1;ratioP1;P1;durP2;ratioP2;P2;SDS_P1;SDS_P2;PMS_P1;PMS_P2;Temp;Humidity;BMP_temperature;BMP_pressure;BME280_temperature;BME280_humidity;BME280_pressure;Samples;Min_cycle;Max_cycle;Signal;HPM_P1;HPM_P2
2022/05/12 00:02:02;;;;;;;;;;;;;;;16.63;55.62;100857.06;5084175;28;19930;-77
2022/05/12 00:04:28;;;;;;;;;;;;;;;16.55;55.80;100864.41;5088624;28;20373;-77
2022/05/12 00:06:54;;;;;;;;;;;;;;;16.57;55.77;100877.47;5089883;28;20962;-78
2022/05/12 00:09:19;;;;;;;;;;;;;;;16.56;56.14;100881.00;5084554;28;19924;-78
2022/05/12 00:11:45;;;;;;;;;;;;;;;16.60;56.04;100874.72;5081561;28;19920;-76
2022/05/12 00:14:10;;;;;;;;;;;;;;;16.65;56.08;100862.22;5084933;28;19920;-76
2022/05/12 00:16:36;;;;;;;;;;;;;;;16.52;55.87;100875.06;5085281;28;19940;-76
2022/05/12 00:19:01;;;;;;;;;;;;;;;16.52;55.94;100890.78;5085520;28;19924;-76
2022/05/12 00:21:26;;;;;;;;;;;;;;;16.53;55.72;100874.13;5061291;28;19964;-76
2022/05/12 00:23:58;;;;;;;;;;;;;;;16.57;55.29;100886.19;5064181;28;20393;-76
2022/05/12 00:26:24;;;;;;;;;;;;;;;16.43;54.36;100888.56;5091294;28;19927;-76
2022/05/12 00:28:50;;;;;;;;;;;;;;;16.37;53.98;100883.59;5086419;28;19924;-76
2022/05/12 00:31:15;;;;;;;;;;;;;;;16.59;52.79;100900.06;5084696;28;19924;-76
2022/05/12 00:33:40;;;;;;;;;;;;;;;16.58;52.49;100897.53;5084989;28;19979;-76
2022/05/12 00:42:12;;;;;;;;;;;;;;;16.13;52.76;100903.81;5084541;28;19922;-78
2022/05/12 00:44:37;;;;;;;;;;;;;;;16.22;52.89;100916.53;5079597;28;19924;-78
2022/05/12 00:47:03;;;;;;;;;;;;;;;16.13;53.39;100909.06;5085628;28;19939;-78
2022/05/12 00:49:30;;;;;;;;;;;;;;;16.29;53.38;100917.13;5087477;28;19920;-78
2022/05/12 00:52:06;;;;;;;;;;;;;;;16.21;53.72;100916.59;5082885;28;19935;-78
2022/05/12 00:54:37;;;;;;;;;;;;;;;16.11;54.42;100918.75;5083281;28;20427;-78
2022/05/12 00:57:04;;;;;;;;;;;;;;;16.18;54.73;100937.69;5083382;28;19932;-78
2022/05/12 00:59:31;;;;;;;;;;;;;;;16.22;54.53;100939.28;5088689;28;19955;-78
2022/05/12 01:01:57;;;;;;;;;;;;;;;16.15;55.01;100929.94;5081188;28;19957;-78
2022/05/12 01:04:23;;;;;;;;;;;;;;;16.20;55.24;100927.97;5087933;28;19924;-78
2022/05/12 01:06:49;;;;;;;;;;;;;;;16.24;54.95;100927.81;5083315;28;20066;-77
2022/05/12 01:09:15;;;;;;;;;;;;;;;16.10;55.85;100945.03;5083806;28;20007;-77
2022/05/12 01:11:40;;;;;;;;;;;;;;;16.11;55.68;100941.47;5069105;28;19928;-77
2022/05/12 01:14:06;;;;;;;;;;;;;;;16.10;55.70;100951.13;5087148;28;19931;-77
2022/05/12 01:16:35;;;;;;;;;;;;;;;15.97;56.56;100942.03;5085203;28;19942;-77
2022/05/12 01:19:00;;;;;;;;;;;;;;;16.13;56.10;100952.75;5076550;28;19924;-77
2022/05/12 01:21:25;;;;;;;;;;;;;;;16.19;56.12;100953.38;5085645;28;19920;-77
2022/05/12 01:23:51;;;;;;;;;;;;;;;16.22;55.91;100955.00;5084451;28;19924;-77
2022/05/12 01:26:17;;;;;;;;;;;;;;;16.11;56.47;100957.19;5049129;28;19928;-75
2022/05/12 01:28:42;;;;;;;;;;;;;;;15.99;56.67;100973.44;5083524;28;19985;-74
2022/05/12 01:31:08;;;;;;;;;;;;;;;15.84;57.24;100974.88;5089752;28;19935;-75
2022/05/12 01:33:34;;;;;;;;;;;;;;;15.98;57.31;100977.81;5086170;28;19931;-75
2022/05/12 01:35:59;;;;;;;;;;;;;;;15.88;57.31;100974.69;5084196;28;19927;-75
2022/05/12 01:38:25;;;;;;;;;;;;;;;15.85;57.25;100987.91;5066551;28;19931;-75
2022/05/12 01:40:51;;;;;;;;;;;;;;;15.81;57.64;100991.56;5088055;28;20015;-75
2022/05/12 01:43:16;;;;;;;;;;;;;;;15.91;57.49;100987.69;5101225;28;19924;-75
2022/05/12 01:45:42;;;;;;;;;;;;;;;15.73;58.23;101004.06;5073012;28;19920;-78
2022/05/12 01:48:09;;;;;;;;;;;;;;;15.81;57.97;101003.81;5085288;28;20554;-78
2022/05/12 01:50:35;;;;;;;;;;;;;;;15.74;58.58;101012.78;5080821;28;22584;-76
2022/05/12 01:53:00;;;;;;;;;;;;;;;15.65;59.04;101008.75;5064396;28;20392;-77
2022/05/12 01:55:27;;;;;;;;;;;;;;;15.75;58.72;101009.31;5085542;28;19919;-77
2022/05/12 01:57:52;;;;;;;;;;;;;;;15.73;58.89;101006.69;5085089;28;20903;-77
2022/05/12 02:00:19;;;;;;;;;;;;;;;15.81;58.60;101009.03;5083436;28;19923;-77
2022/05/12 02:02:44;;;;;;;;;;;;;;;15.84;58.82;101014.16;5086522;28;19912;-77
2022/05/12 02:05:11;;;;;;;;;;;;;;;15.80;58.94;101013.44;5086201;28;20393;-77
2022/05/12 02:07:38;;;;;;;;;;;;;;;15.76;58.97;101018.84;5085404;28;20002;-77
2022/05/12 02:10:04;;;;;;;;;;;;;;;15.74;59.24;101018.94;5084452;28;19928;-77
2022/05/12 02:12:30;;;;;;;;;;;;;;;15.89;58.62;101020.97;5090592;28;20400;-77
2022/05/12 02:14:55;;;;;;;;;;;;;;;15.71;59.46;101020.78;5087593;28;19931;-77
2022/05/12 02:17:20;;;;;;;;;;;;;;;15.59;59.90;101029.09;5088119;28;19935;-77
2022/05/12 02:19:45;;;;;;;;;;;;;;;15.66;59.94;101026.16;5089415;28;19920;-77
2022/05/12 02:22:11;;;;;;;;;;;;;;;15.59;60.08;101026.47;5089063;28;20442;-77
2022/05/12 02:24:36;;;;;;;;;;;;;;;15.62;60.03;101026.34;5089382;28;20038;-77
2022/05/12 02:27:02;;;;;;;;;;;;;;;15.57;59.70;101025.69;5089509;28;20462;-78
2022/05/12 02:29:27;;;;;;;;;;;;;;;15.72;59.35;101030.34;5088798;28;19920;-77
2022/05/12 02:31:53;;;;;;;;;;;;;;;15.74;58.88;101037.25;5086763;28;20439;-77
2022/05/12 02:34:18;;;;;;;;;;;;;;;15.72;58.85;101036.41;5085633;28;19920;-77
2022/05/12 02:36:59;;;;;;;;;;;;;;;15.43;59.87;101039.25;5089296;28;19924;-77
2022/05/12 02:39:25;;;;;;;;;;;;;;;15.55;59.20;101046.66;5070753;28;20296;-77
2022/05/12 02:41:50;;;;;;;;;;;;;;;15.34;59.84;101053.53;5090536;28;19920;-77
2022/05/12 02:44:16;;;;;;;;;;;;;;;15.44;59.63;101059.31;5088485;28;19928;-75
2022/05/12 02:46:41;;;;;;;;;;;;;;;15.46;59.30;101052.25;5072510;28;19920;-75
2022/05/12 02:49:06;;;;;;;;;;;;;;;15.52;58.95;101051.16;5068177;28;19927;-75
2022/05/12 02:51:31;;;;;;;;;;;;;;;15.43;59.39;101066.31;5065657;28;20403;-77
2022/05/12 02:53:57;;;;;;;;;;;;;;;15.50;59.31;101066.94;5092651;28;19927;-77
2022/05/12 02:56:22;;;;;;;;;;;;;;;15.49;59.33;101074.84;5091255;28;20368;-78
2022/05/12 02:58:47;;;;;;;;;;;;;;;15.67;58.51;101076.78;5091600;28;20038;-78
2022/05/12 03:01:12;;;;;;;;;;;;;;;15.51;59.02;101078.28;5093116;28;19927;-78
2022/05/12 03:03:38;;;;;;;;;;;;;;;15.46;58.99;101078.41;5082277;28;20010;-75
2022/05/12 03:06:03;;;;;;;;;;;;;;;15.42;59.31;101082.91;5087167;28;20482;-77
2022/05/12 03:08:29;;;;;;;;;;;;;;;15.49;58.99;101077.44;5086653;28;19952;-77
2022/05/12 03:10:54;;;;;;;;;;;;;;;15.09;58.79;101091.97;5089186;28;19974;-77
2022/05/12 03:13:19;;;;;;;;;;;;;;;15.16;57.60;101101.28;5083047;28;19923;-78
2022/05/12 03:15:45;;;;;;;;;;;;;;;15.17;57.09;101113.47;5082530;28;19967;-75
2022/05/12 03:18:10;;;;;;;;;;;;;;;15.14;56.25;101103.13;5088615;28;20344;-75
2022/05/12 03:20:36;;;;;;;;;;;;;;;14.94;55.82;101113.41;5093482;28;20010;-78
2022/05/12 03:23:02;;;;;;;;;;;;;;;15.09;55.14;101112.91;5086608;28;20244;-78
2022/05/12 03:25:27;;;;;;;;;;;;;;;15.02;54.07;101118.38;5084286;28;19920;-78
2022/05/12 03:27:52;;;;;;;;;;;;;;;15.02;53.99;101124.47;5066879;28;20011;-78
2022/05/12 03:30:19;;;;;;;;;;;;;;;15.05;54.12;101126.13;5086116;28;20024;-78
2022/05/12 03:32:45;;;;;;;;;;;;;;;14.94;54.78;101131.72;5083287;28;19920;-77
2022/05/12 03:35:11;;;;;;;;;;;;;;;14.82;55.18;101132.13;5086751;28;19934;-77
2022/05/12 03:37:37;;;;;;;;;;;;;;;14.73;55.53;101132.41;5078971;28;20459;-77
2022/05/12 03:40:03;;;;;;;;;;;;;;;14.95;55.31;101135.19;5082218;28;19931;-76
2022/05/12 03:42:28;;;;;;;;;;;;;;;14.81;56.28;101136.50;5086350;28;20372;-77
2022/05/12 03:44:54;;;;;;;;;;;;;;;14.72;56.86;101147.22;5086591;28;20023;-77
2022/05/12 03:47:24;;;;;;;;;;;;;;;14.89;56.57;101156.34;5086746;28;19912;-77
2022/05/12 03:49:50;;;;;;;;;;;;;;;14.99;56.50;101160.34;5081656;28;19930;-77
2022/05/12 03:52:16;;;;;;;;;;;;;;;14.88;57.09;101158.09;5084897;28;19963;-77
2022/05/12 03:54:42;;;;;;;;;;;;;;;15.03;56.90;101165.44;5081754;28;20006;-77
2022/05/12 03:57:07;;;;;;;;;;;;;;;14.86;57.80;101181.66;5087203;28;19924;-77
2022/05/12 03:59:33;;;;;;;;;;;;;;;14.83;58.12;101178.28;5089736;28;19923;-77
2022/05/12 04:01:59;;;;;;;;;;;;;;;14.84;58.21;101188.72;5091492;28;19996;-77
2022/05/12 04:04:24;;;;;;;;;;;;;;;15.01;57.74;101188.16;5085994;28;20276;-77
2022/05/12 04:06:49;;;;;;;;;;;;;;;14.70;58.99;101192.63;5073567;28;19920;-77
2022/05/12 04:09:15;;;;;;;;;;;;;;;14.48;59.59;101192.44;5087650;28;19925;-78
2022/05/12 04:11:40;;;;;;;;;;;;;;;14.72;59.13;101193.44;5089184;28;21409;-77
2022/05/12 04:14:06;;;;;;;;;;;;;;;14.71;59.21;101195.19;5078898;28;20392;-75
2022/05/12 04:16:32;;;;;;;;;;;;;;;14.77;59.01;101208.09;5089568;28;19924;-75
2022/05/12 04:18:57;;;;;;;;;;;;;;;14.70;59.43;101210.94;5083948;28;20367;-75
2022/05/12 04:21:23;;;;;;;;;;;;;;;14.76;59.16;101209.03;5071683;28;19924;-75
2022/05/12 04:23:48;;;;;;;;;;;;;;;14.61;59.00;101225.16;5088084;28;19920;-75
2022/05/12 04:26:13;;;;;;;;;;;;;;;14.70;58.23;101221.41;5084312;28;19924;-75
2022/05/12 04:28:38;;;;;;;;;;;;;;;14.63;58.01;101227.72;5086162;28;19967;-75
2022/05/12 04:31:04;;;;;;;;;;;;;;;14.69;57.87;101241.47;5088321;28;19959;-74
2022/05/12 04:36:13;;;;;;;;;;;;;;;14.49;57.67;101250.78;5088735;28;19978;-75
2022/05/12 04:38:39;;;;;;;;;;;;;;;14.64;56.64;101253.81;5091523;28;20443;-75
2022/05/12 04:41:06;;;;;;;;;;;;;;;14.49;56.95;101249.03;5089148;28;20381;-75
2022/05/12 04:43:31;;;;;;;;;;;;;;;14.76;56.57;101255.25;5050438;28;19925;-75
2022/05/12 04:45:56;;;;;;;;;;;;;;;14.69;55.48;101254.53;5071591;28;19935;-75
2022/05/12 04:48:22;;;;;;;;;;;;;;;14.83;54.95;101251.50;5091396;28;20328;-78
2022/05/12 04:50:47;;;;;;;;;;;;;;;14.63;55.31;101265.16;5088246;28;19927;-78
2022/05/12 04:53:12;;;;;;;;;;;;;;;14.41;56.54;101266.72;5086379;28;19947;-76
2022/05/12 04:55:38;;;;;;;;;;;;;;;14.63;57.12;101267.78;5085747;28;19924;-77
2022/05/12 04:58:04;;;;;;;;;;;;;;;14.86;56.82;101272.34;5067449;28;20695;-77
2022/05/12 05:00:35;;;;;;;;;;;;;;;14.81;57.78;101272.50;5083379;28;20530;-77
2022/05/12 05:03:00;;;;;;;;;;;;;;;14.90;57.47;101276.59;5086817;28;19916;-77
2022/05/12 05:05:26;;;;;;;;;;;;;;;14.89;57.53;101281.88;5069045;28;19930;-75
2022/05/12 05:07:52;;;;;;;;;;;;;;;14.78;56.92;101284.81;5084664;28;19924;-75
2022/05/12 05:10:18;;;;;;;;;;;;;;;14.76;57.36;101287.47;5086745;28;19928;-76
2022/05/12 05:12:43;;;;;;;;;;;;;;;14.86;57.73;101293.28;5088278;28;19924;-75
2022/05/12 05:15:10;;;;;;;;;;;;;;;14.81;58.22;101297.78;5084814;28;19928;-77
2022/05/12 05:17:36;;;;;;;;;;;;;;;14.79;58.55;101300.47;5087520;28;20738;-78
2022/05/12 05:20:04;;;;;;;;;;;;;;;14.78;58.47;101305.72;5085987;28;19974;-78
2022/05/12 05:22:29;;;;;;;;;;;;;;;14.59;59.54;101317.63;5080233;28;19924;-78
2022/05/12 05:24:55;;;;;;;;;;;;;;;14.60;59.48;101329.78;5069948;28;19931;-77
2022/05/12 05:27:20;;;;;;;;;;;;;;;14.40;59.72;101317.28;5084789;28;19926;-77
2022/05/12 05:29:45;;;;;;;;;;;;;;;14.67;58.92;101321.72;5073363;28;19924;-78
2022/05/12 05:32:12;;;;;;;;;;;;;;;14.56;59.47;101333.38;5083736;28;19931;-76
2022/05/12 05:34:37;;;;;;;;;;;;;;;14.87;57.93;101323.78;5074710;28;19922;-78
2022/05/12 05:37:03;;;;;;;;;;;;;;;14.86;58.29;101327.28;5096879;28;19924;-76
2022/05/12 05:39:29;;;;;;;;;;;;;;;14.79;58.03;101338.84;5055553;28;20010;-78
2022/05/12 05:41:57;;;;;;;;;;;;;;;14.58;59.04;101347.25;5082107;28;19974;-78
2022/05/12 05:44:22;;;;;;;;;;;;;;;14.54;57.90;101354.34;5070900;28;20646;-78
2022/05/12 05:46:48;;;;;;;;;;;;;;;14.65;58.44;101354.06;5092308;28;19969;-78
2022/05/12 05:49:14;;;;;;;;;;;;;;;14.59;58.40;101357.66;5077151;28;20325;-78
2022/05/12 05:54:24;;;;;;;;;;;;;;;14.87;58.09;101365.63;5087308;28;19993;-78
2022/05/12 05:56:49;;;;;;;;;;;;;;;14.78;57.29;101364.13;5091976;28;20388;-78
2022/05/12 05:59:14;;;;;;;;;;;;;;;14.49;57.29;101366.69;5093068;28;20003;-78
2022/05/12 06:01:39;;;;;;;;;;;;;;;14.62;57.41;101370.66;5092810;28;19920;-78
2022/05/12 06:04:05;;;;;;;;;;;;;;;14.73;56.62;101367.75;5086255;28;19931;-75
2022/05/12 06:06:30;;;;;;;;;;;;;;;14.72;56.38;101374.72;5088556;28;19982;-75
2022/05/12 06:08:56;;;;;;;;;;;;;;;14.77;56.35;101385.94;5093660;28;19924;-76
2022/05/12 06:11:21;;;;;;;;;;;;;;;14.65;56.39;101390.66;5092034;28;19923;-75
2022/05/12 06:13:47;;;;;;;;;;;;;;;14.80;56.51;101385.84;5094414;28;19924;-75
2022/05/12 06:16:14;;;;;;;;;;;;;;;14.71;57.69;101388.69;5086443;28;19935;-75
2022/05/12 06:18:39;;;;;;;;;;;;;;;14.83;57.16;101390.13;5096264;28;19920;-75
2022/05/12 06:21:05;;;;;;;;;;;;;;;14.81;57.40;101391.94;5101496;28;20549;-75
2022/05/12 06:23:32;;;;;;;;;;;;;;;14.87;56.52;101391.78;5094273;28;20357;-75
2022/05/12 06:25:57;;;;;;;;;;;;;;;14.91;56.33;101388.19;5093025;28;19931;-75
2022/05/12 06:28:23;;;;;;;;;;;;;;;14.96;55.22;101401.97;5105978;28;19923;-75
2022/05/12 06:30:48;;;;;;;;;;;;;;;14.88;56.36;101403.97;5105527;28;19927;-75
2022/05/12 06:33:17;;;;;;;;;;;;;;;14.65;55.80;101407.19;5093030;28;20470;-75
2022/05/12 06:35:43;;;;;;;;;;;;;;;14.80;55.30;101398.06;5078897;28;20324;-75
2022/05/12 06:38:09;;;;;;;;;;;;;;;14.77;55.41;101406.88;5090608;28;19928;-75
2022/05/12 06:40:34;;;;;;;;;;;;;;;14.95;54.36;101405.50;5099645;28;20609;-75
2022/05/12 06:43:03;;;;;;;;;;;;;;;14.83;54.80;101414.53;5096021;28;20444;-75
2022/05/12 06:45:28;;;;;;;;;;;;;;;14.76;54.44;101412.16;5071036;28;19973;-75
2022/05/12 06:47:54;;;;;;;;;;;;;;;14.96;53.75;101411.59;5067526;28;20566;-75
2022/05/12 06:50:24;;;;;;;;;;;;;;;14.87;55.43;101417.94;5088729;28;19916;-78
2022/05/12 06:52:49;;;;;;;;;;;;;;;14.88;54.37;101422.28;5096421;28;19920;-78
2022/05/12 06:55:15;;;;;;;;;;;;;;;15.00;54.79;101419.31;5086222;28;19934;-75
2022/05/12 06:57:42;;;;;;;;;;;;;;;15.02;52.91;101420.13;5072671;28;20419;-75
2022/05/12 07:00:11;;;;;;;;;;;;;;;15.03;53.92;101414.00;5095785;28;19924;-75
2022/05/12 07:02:38;;;;;;;;;;;;;;;15.07;53.41;101414.72;5077115;28;19916;-75
2022/05/12 07:05:04;;;;;;;;;;;;;;;15.13;53.14;101422.41;5089804;28;19928;-76
2022/05/12 07:07:30;;;;;;;;;;;;;;;15.11;51.81;101412.00;5085264;28;19931;-75
2022/05/12 07:09:55;;;;;;;;;;;;;;;15.10;52.56;101422.50;5089354;28;19923;-78
2022/05/12 07:12:21;;;;;;;;;;;;;;;15.15;51.51;101418.88;5094595;28;20022;-78
2022/05/12 07:14:51;;;;;;;;;;;;;;;15.05;51.74;101419.16;5087785;28;20378;-78
2022/05/12 07:17:20;;;;;;;;;;;;;;;15.05;52.03;101424.41;5089532;28;19963;-78
2022/05/12 07:19:45;;;;;;;;;;;;;;;14.99;51.68;101422.81;5097825;28;19923;-78
2022/05/12 07:27:38;;;;;;;;;;;;;;;15.22;50.11;101425.63;5094678;28;20032;-75
2022/05/12 07:30:04;;;;;;;;;;;;;;;15.19;51.49;101432.69;5097540;28;20618;-77
2022/05/12 07:32:29;;;;;;;;;;;;;;;15.24;50.19;101439.53;5098333;28;20438;-77
2022/05/12 07:34:54;;;;;;;;;;;;;;;15.20;51.10;101437.91;5092924;28;19930;-77
2022/05/12 07:37:20;;;;;;;;;;;;;;;15.15;51.57;101445.03;5092198;28;19924;-76
2022/05/12 07:39:45;;;;;;;;;;;;;;;15.23;49.64;101443.06;5095582;28;20377;-77
2022/05/12 07:42:10;;;;;;;;;;;;;;;15.24;49.42;101443.91;5071142;28;20292;-76
2022/05/12 07:44:37;;;;;;;;;;;;;;;15.19;50.53;101445.78;5094587;28;19920;-77
2022/05/12 07:47:05;;;;;;;;;;;;;;;15.27;51.05;101442.03;5087840;28;19926;-76
2022/05/12 07:49:33;;;;;;;;;;;;;;;15.24;51.17;101451.75;5088047;28;20017;-76
2022/05/12 07:51:59;;;;;;;;;;;;;;;15.35;50.85;101458.41;5090348;28;19973;-76
2022/05/12 07:54:24;;;;;;;;;;;;;;;15.41;52.18;101454.72;5089155;28;19928;-75
2022/05/12 07:56:49;;;;;;;;;;;;;;;15.54;51.77;101460.47;5087271;28;19965;-75
2022/05/12 07:59:15;;;;;;;;;;;;;;;15.51;51.62;101463.19;5087789;28;20018;-75
2022/05/12 08:01:40;;;;;;;;;;;;;;;15.62;50.62;101455.84;5065562;28;19939;-75
2022/05/12 08:04:06;;;;;;;;;;;;;;;15.56;50.38;101459.50;5086563;28;19931;-75
2022/05/12 08:06:32;;;;;;;;;;;;;;;15.50;50.60;101464.06;5082881;28;20093;-75
2022/05/12 08:08:59;;;;;;;;;;;;;;;15.57;50.63;101465.59;5083418;28;19926;-75
2022/05/12 08:11:24;;;;;;;;;;;;;;;15.57;51.10;101476.91;5084501;28;19920;-75
2022/05/12 08:13:49;;;;;;;;;;;;;;;15.59;51.09;101477.75;5088560;28;19928;-75
2022/05/12 08:16:16;;;;;;;;;;;;;;;15.45;51.02;101484.31;5066925;28;19928;-75
2022/05/12 08:18:44;;;;;;;;;;;;;;;15.58;50.81;101481.25;5086252;28;19928;-75
2022/05/12 08:21:09;;;;;;;;;;;;;;;15.62;50.79;101484.66;5083202;28;19924;-75
2022/05/12 08:23:35;;;;;;;;;;;;;;;15.62;51.64;101482.91;5085179;28;19939;-75
2022/05/12 08:26:01;;;;;;;;;;;;;;;15.67;51.09;101485.34;5067687;28;19928;-75
2022/05/12 08:28:26;;;;;;;;;;;;;;;15.36;52.02;101482.81;5082595;28;19959;-78
2022/05/12 08:30:52;;;;;;;;;;;;;;;15.62;51.23;101492.50;5087933;28;20000;-78
2022/05/12 08:33:18;;;;;;;;;;;;;;;15.62;51.80;101485.50;5068870;28;20019;-78
2022/05/12 08:35:43;;;;;;;;;;;;;;;15.67;52.40;101491.47;5086076;28;20377;-78
2022/05/12 08:38:10;;;;;;;;;;;;;;;15.74;52.49;101487.78;5089693;28;19951;-78
2022/05/12 08:40:40;;;;;;;;;;;;;;;15.62;51.74;101490.75;5071910;28;19920;-78
2022/05/12 08:43:11;;;;;;;;;;;;;;;15.64;51.90;101491.56;5093034;28;19997;-78
2022/05/12 08:45:36;;;;;;;;;;;;;;;15.62;52.39;101497.75;5085275;28;19964;-78
2022/05/12 08:48:01;;;;;;;;;;;;;;;15.62;51.15;101503.84;5085381;28;20076;-78
2022/05/12 08:50:28;;;;;;;;;;;;;;;15.63;51.17;101497.69;5062695;28;19966;-75
2022/05/12 08:52:57;;;;;;;;;;;;;;;15.71;51.29;101497.47;5086963;28;19984;-75
2022/05/12 08:55:25;;;;;;;;;;;;;;;15.75;51.43;101499.13;5083601;28;19927;-75
2022/05/12 08:58:14;;;;;;;;;;;;;;;15.76;51.94;101498.22;5091131;28;20463;-75
2022/05/12 09:00:58;;;;;;;;;;;;;;;15.86;51.83;101491.78;5087040;28;20419;-75
2022/05/12 09:03:32;;;;;;;;;;;;;;;15.99;52.11;101498.34;5086545;28;19924;-75
2022/05/12 09:06:03;;;;;;;;;;;;;;;15.95;51.15;101492.38;5086138;28;19927;-75
2022/05/12 09:08:48;;;;;;;;;;;;;;;15.97;51.53;101501.03;5087475;28;19916;-75
2022/05/12 09:11:20;;;;;;;;;;;;;;;16.03;50.52;101491.25;5084058;28;19938;-75
2022/05/12 09:13:50;;;;;;;;;;;;;;;16.00;48.34;101478.25;5088099;28;20459;-77
2022/05/12 09:16:15;;;;;;;;;;;;;;;15.99;48.09;101484.41;5081183;28;19931;-77
2022/05/12 09:18:41;;;;;;;;;;;;;;;16.11;48.61;101481.38;5088936;28;20376;-77
2022/05/12 09:21:09;;;;;;;;;;;;;;;16.04;49.01;101482.50;5085884;28;19926;-77
2022/05/12 09:23:35;;;;;;;;;;;;;;;16.13;48.51;101482.19;5083106;28;19986;-77
2022/05/12 09:26:20;;;;;;;;;;;;;;;16.22;48.97;101476.66;5087031;28;19977;-76
2022/05/12 09:28:46;;;;;;;;;;;;;;;16.08;49.05;101477.09;5063969;28;19925;-76
2022/05/12 09:31:17;;;;;;;;;;;;;;;16.10;48.47;101470.03;5087293;28;19928;-76
2022/05/12 09:33:44;;;;;;;;;;;;;;;16.04;47.14;101477.25;5090799;28;19959;-76
2022/05/12 09:36:14;;;;;;;;;;;;;;;15.81;47.38;101473.56;5082220;28;19927;-76
2022/05/12 09:38:41;;;;;;;;;;;;;;;16.01;46.94;101469.47;5082535;28;19926;-78
2022/05/12 09:41:17;;;;;;;;;;;;;;;16.00;47.08;101467.75;5092624;28;20014;-78
2022/05/12 09:43:43;;;;;;;;;;;;;;;15.90;46.60;101467.19;5076386;28;20371;-78
2022/05/12 09:46:17;;;;;;;;;;;;;;;15.92;46.98;101461.03;5091359;28;19928;-78
2022/05/12 09:48:44;;;;;;;;;;;;;;;15.94;46.91;101455.72;5099333;28;19924;-76
2022/05/12 09:51:15;;;;;;;;;;;;;;;16.06;47.05;101454.47;5090401;28;19920;-76
2022/05/12 09:53:41;;;;;;;;;;;;;;;16.08;46.95;101455.25;5081176;28;19982;-76
2022/05/12 09:56:08;;;;;;;;;;;;;;;16.02;45.76;101451.06;5089002;28;19960;-76
2022/05/12 09:58:35;;;;;;;;;;;;;;;16.11;46.16;101447.28;5066029;28;19932;-78
2022/05/12 10:01:12;;;;;;;;;;;;;;;16.11;45.84;101449.91;5071176;28;19920;-76
2022/05/12 10:09:15;;;;;;;;;;;;;;;16.09;46.05;101441.25;5081271;28;19930;-76
2022/05/12 10:11:45;;;;;;;;;;;;;;;15.96;45.22;101440.78;5087946;28;19916;-76
2022/05/12 10:14:16;;;;;;;;;;;;;;;16.07;47.12;101446.56;5069497;28;19924;-76
2022/05/12 10:16:41;;;;;;;;;;;;;;;16.17;46.40;101437.47;5082524;28;19936;-76
2022/05/12 10:19:10;;;;;;;;;;;;;;;16.21;45.81;101440.84;5085346;28;19924;-76
2022/05/12 10:21:35;;;;;;;;;;;;;;;16.31;45.39;101431.78;5084515;28;19924;-77
2022/05/12 10:24:19;;;;;;;;;;;;;;;16.31;46.10;101424.75;5094487;28;19919;-76
2022/05/12 10:26:48;;;;;;;;;;;;;;;16.42;44.98;101433.13;5080994;28;19916;-76
2022/05/12 10:29:21;;;;;;;;;;;;;;;16.46;44.60;101423.38;5082612;28;19931;-77
2022/05/12 10:31:57;;;;;;;;;;;;;;;16.48;46.11;101421.56;5083796;28;19977;-76
2022/05/12 10:34:44;;;;;;;;;;;;;;;16.49;45.24;101418.84;5072139;28;19924;-76
2022/05/12 10:37:27;;;;;;;;;;;;;;;16.43;45.53;101413.81;5086831;28;19951;-75
2022/05/12 10:40:01;;;;;;;;;;;;;;;16.43;45.58;101419.06;5091431;28;20003;-75
2022/05/12 10:42:40;;;;;;;;;;;;;;;16.51;46.53;101422.31;5088211;28;20408;-75
2022/05/12 10:45:24;;;;;;;;;;;;;;;16.45;46.32;101411.16;5091984;28;19920;-75
2022/05/12 10:48:04;;;;;;;;;;;;;;;16.42;44.84;101419.16;5095011;28;19995;-75
2022/05/12 10:50:32;;;;;;;;;;;;;;;16.35;44.82;101400.13;5092012;28;19920;-76
2022/05/12 10:53:17;;;;;;;;;;;;;;;16.38;45.01;101400.03;5088626;28;19973;-77
2022/05/12 10:55:57;;;;;;;;;;;;;;;16.44;44.77;101423.41;5084128;28;19928;-75
2022/05/12 10:58:32;;;;;;;;;;;;;;;16.45;44.08;101406.78;5085718;28;19934;-75
2022/05/12 11:01:16;;;;;;;;;;;;;;;16.50;43.83;101396.13;5084991;28;19916;-76
2022/05/12 11:03:51;;;;;;;;;;;;;;;16.60;45.33;101407.16;5094715;28;19931;-76
2022/05/12 11:06:19;;;;;;;;;;;;;;;16.65;46.67;101402.59;5089396;28;19931;-75
2022/05/12 11:08:51;;;;;;;;;;;;;;;16.69;45.55;101398.97;5066362;28;20014;-75
2022/05/12 11:11:20;;;;;;;;;;;;;;;16.65;44.69;101395.56;5088749;28;19975;-78
2022/05/12 11:14:08;;;;;;;;;;;;;;;16.65;43.81;101395.56;5087265;28;19923;-78
2022/05/12 11:16:47;;;;;;;;;;;;;;;16.67;43.70;101401.63;5076682;28;19928;-78
2022/05/12 11:19:15;;;;;;;;;;;;;;;16.65;43.29;101399.97;5086482;28;20344;-78
2022/05/12 11:21:45;;;;;;;;;;;;;;;16.76;44.08;101397.84;5089370;28;19931;-78
2022/05/12 11:24:29;;;;;;;;;;;;;;;16.68;44.85;101395.47;5087131;28;19942;-78
2022/05/12 11:27:05;;;;;;;;;;;;;;;16.70;44.90;101400.72;5084050;28;19986;-78
2022/05/12 11:29:44;;;;;;;;;;;;;;;16.79;43.02;101395.13;5085959;28;19924;-76
2022/05/12 11:32:15;;;;;;;;;;;;;;;16.78;43.54;101393.41;5091546;28;20351;-75
2022/05/12 11:34:42;;;;;;;;;;;;;;;16.77;44.12;101387.28;5086950;28;19924;-75
2022/05/12 11:37:26;;;;;;;;;;;;;;;16.89;45.09;101392.09;5068227;28;19932;-75
2022/05/12 11:39:55;;;;;;;;;;;;;;;16.92;42.84;101386.72;5089970;28;20407;-76
2022/05/12 11:44:23;;;;;;;;;;;;;;;17.08;42.98;101387.84;5084435;28;20399;-76
2022/05/12 11:45:29;;;;;;;;;;;;;;;16.97;41.88;101382.16;5088149;28;21346;-78
2022/05/12 11:48:13;;;;;;;;;;;;;;;17.01;42.18;101382.91;5083529;28;20332;-76
2022/05/12 11:50:42;;;;;;;;;;;;;;;17.02;43.02;101382.00;5093887;28;20042;-75
2022/05/12 11:53:20;;;;;;;;;;;;;;;17.06;41.45;101383.56;5094315;28;19924;-75
2022/05/12 11:56:12;;;;;;;;;;;;;;;17.12;41.84;101378.09;5087309;28;19924;-75
2022/05/12 11:58:40;;;;;;;;;;;;;;;17.10;42.02;101374.69;5087637;28;20408;-75
2022/05/12 12:01:27;;;;;;;;;;;;;;;17.06;42.21;101383.56;5091441;28;19959;-75
2022/05/12 12:04:13;;;;;;;;;;;;;;;16.99;42.03;101380.34;5075840;28;19924;-75
2022/05/12 12:07:01;;;;;;;;;;;;;;;16.98;40.75;101369.91;5094341;28;20404;-75
2022/05/12 12:09:33;;;;;;;;;;;;;;;17.06;41.55;101368.69;5090253;28;20002;-78
2022/05/12 12:11:59;;;;;;;;;;;;;;;17.06;41.54;101367.81;5083808;28;19920;-78
2022/05/12 12:14:43;;;;;;;;;;;;;;;17.02;41.81;101369.75;5081101;28;19955;-78
2022/05/12 12:17:14;;;;;;;;;;;;;;;17.03;42.36;101360.06;5081596;28;19959;-76
2022/05/12 12:19:48;;;;;;;;;;;;;;;17.08;42.14;101357.28;5085275;28;19931;-75
2022/05/12 12:22:17;;;;;;;;;;;;;;;17.17;43.15;101367.44;5071820;28;19923;-75
2022/05/12 12:24:49;;;;;;;;;;;;;;;17.12;42.12;101358.84;5094846;28;19928;-75
2022/05/12 12:27:25;;;;;;;;;;;;;;;17.20;41.83;101362.06;5087368;28;20226;-75
2022/05/12 12:29:50;;;;;;;;;;;;;;;17.25;41.61;101360.97;5086535;28;19978;-75
2022/05/12 12:32:25;;;;;;;;;;;;;;;17.39;41.89;101363.03;5067915;28;20536;-77
2022/05/12 12:34:52;;;;;;;;;;;;;;;17.23;42.51;101354.06;5088812;28;20014;-78
2022/05/12 12:37:36;;;;;;;;;;;;;;;17.34;41.03;101360.59;5084135;28;19928;-78
2022/05/12 12:40:21;;;;;;;;;;;;;;;17.32;40.70;101362.41;5083867;28;19986;-75
2022/05/12 12:42:47;;;;;;;;;;;;;;;17.36;41.60;101364.00;5086776;28;19963;-75
2022/05/12 12:45:15;;;;;;;;;;;;;;;17.32;40.62;101357.16;5088874;28;19970;-75
2022/05/12 12:47:49;;;;;;;;;;;;;;;17.40;40.72;101357.72;5067856;28;19943;-75
2022/05/12 12:50:14;;;;;;;;;;;;;;;17.41;40.81;101355.97;5086991;28;19920;-75
2022/05/12 12:52:44;;;;;;;;;;;;;;;17.33;40.98;101348.38;5086736;28;20023;-75
2022/05/12 12:58:28;;;;;;;;;;;;;;;17.42;40.78;101345.38;5073761;28;19981;-75
2022/05/12 13:00:58;;;;;;;;;;;;;;;17.46;41.22;101343.50;5085943;28;19924;-77
2022/05/12 13:03:28;;;;;;;;;;;;;;;17.54;40.37;101334.38;5083984;28;19927;-78
2022/05/12 13:06:05;;;;;;;;;;;;;;;17.59;40.82;101332.44;5085116;28;19924;-78
2022/05/12 13:08:31;;;;;;;;;;;;;;;17.63;40.50;101335.81;5083445;28;19924;-78